Airfield :
LOGIN :

Register | Disclaimer

   EN    FR    IT 

 










Legend :    VFR   Marginal VFR   IFR   Intensive IFR   Very Intensive IFR
Visi :
Ceiling :
>= 8 km
>= 3000ft
5 to 8 km
1000 to 3000 ft
1500m to 5 km
500 to 1000 ft
800 to 1500m
200 to 500 ft
< 800m
< 200 ft
Symbols :   Thunderstorms  Fog  Heavy snow  Heavy precipitations  Wind > 20 kt
SIGMETs :     Misc.  Thunderstorms  Icing  Turbulence  Mountain Waves  Volcanic Ashes







- Airport Elevation : 353 ft
- IATA code : ZAG


LDZA - Zagreb Pleso

CURRENT METAR :
  • 200530Z 24004KT 200V280 CAVOK 10/09 Q1013 NOSIG

EXPIRED METARs :
  • 200500Z 24005KT CAVOK 10/09 Q1013 NOSIG
  • 200430Z VRB02KT CAVOK 10/08 Q1013 NOSIG
  • 200400Z 27003KT 9999 FEW020 10/08 Q1013 NOSIG
  • 200330Z 28006KT 250V320 9999 -RA FEW020 10/08 Q1013 NOSIG
  • 200300Z 23003KT 190V260 9999 -RA FEW020 OVC047 10/09 Q1013 NOSIG

TAF TAF LDZA
Valid from the 20 at 06:00 until the 21 at 06:00 UTC


200525Z 2006/2106 27005KT 9999 SCT020 BKN035 TX13/2013Z TN08/2104Z
TEMPO 2006/2016 RA BKN006 OVC020
BECMG 2009/2011 30010KT
PROB30
TEMPO 2011/2017 03015G25KT
BECMG 2019/2021 28005KT
ATIS : +385 1 6-259-214
No reported NOTAMs for that airfield.
1 SIGMET reported for the Zagreb FIR (LDZO) :
 
Embedded thunderstorms
LDZO SIGMET 2 VALID 200500/200800 LDZA
LDZO ZAGREB FIR EMBD TS OBS WI N4228 E01607 - N4327 E01433 - N4354 E01405 - N4404 E01622 - N4232 E01827 - N4146 E01734 - N4228 E01607 TOP FL320 STNR NC=



MET'MAP, your aeronautical weather chart ! - Copyright ORBIFLY December 2007 - Disclaimer

ORBIFLY MET'MAP TEAM :

Programming & Development : Alexandra Zaïnal
Concept & Development : Baudouin d'Aumeries
Co-Development & Prog : Marc-Olivier Méhu
Technical & hardware support : Manuel Goepfert

Contact : metmap@orbifly.com




SOURCES & CREDITS :

   NOAA